Time;durP1;ratioP1;P1;durP2;ratioP2;P2;SDS_P1;SDS_P2;PMS_P1;PMS_P2;Temp;Humidity;BMP_temperature;BMP_pressure;BME280_temperature;BME280_humidity;BME280_pressure;Samples;Min_cycle;Max_cycle;Signal;HPM_P1;HPM_P2
2021/10/17 00:01:00;;;;;;;8.52;4.50;;;;;;;6.59;86.49;99118.44;5036353;28;20045;-46
2021/10/17 00:03:26;;;;;;;9.18;5.35;;;;;;;6.60;86.17;99109.78;5032926;28;20045;-46
2021/10/17 00:05:51;;;;;;;9.00;4.88;;;;;;;6.57;86.23;99107.28;5046175;28;20529;-46
2021/10/17 00:08:17;;;;;;;9.02;3.65;;;;;;;6.52;86.21;99108.28;5029885;28;20429;-50
2021/10/17 00:10:43;;;;;;;9.88;4.35;;;;;;;6.48;86.37;99110.13;5035703;28;20041;-46
2021/10/17 00:13:09;;;;;;;6.18;3.63;;;;;;;6.45;86.03;99110.19;5029767;28;20095;-47
2021/10/17 00:15:38;;;;;;;8.00;4.15;;;;;;;6.38;86.89;99103.53;5030294;28;20049;-46
2021/10/17 00:18:05;;;;;;;5.68;2.90;;;;;;;6.35;86.97;99098.41;5036655;28;20361;-46
2021/10/17 00:20:31;;;;;;;5.90;3.80;;;;;;;6.31;86.92;99110.56;5014939;28;20143;-45
2021/10/17 00:22:57;;;;;;;13.07;5.22;;;;;;;6.27;87.67;99118.44;5047813;28;20049;-46
2021/10/17 00:25:24;;;;;;;6.50;3.00;;;;;;;6.24;87.50;99115.91;5031552;28;20505;-46
2021/10/17 00:27:50;;;;;;;8.57;3.78;;;;;;;6.20;87.77;99112.56;5029679;28;20505;-48
2021/10/17 00:30:23;;;;;;;9.32;4.40;;;;;;;6.13;88.17;99102.44;5032262;28;20061;-47
2021/10/17 00:32:50;;;;;;;11.10;5.00;;;;;;;6.06;88.40;99088.03;5028238;28;20124;-46
2021/10/17 00:35:16;;;;;;;6.93;3.83;;;;;;;6.07;89.05;99100.03;5041473;28;20091;-49
2021/10/17 00:37:43;;;;;;;7.85;4.32;;;;;;;6.08;88.83;99094.81;5031096;28;20049;-47
2021/10/17 00:40:11;;;;;;;8.90;4.65;;;;;;;6.07;89.74;99106.03;5030258;28;20091;-46
2021/10/17 00:42:37;;;;;;;7.78;4.05;;;;;;;5.95;89.70;99107.19;5029090;28;20132;-48
2021/10/17 00:45:08;;;;;;;8.75;4.32;;;;;;;6.02;90.24;99107.06;5000408;28;20169;-45
2021/10/17 00:47:34;;;;;;;9.93;5.55;;;;;;;6.00;90.69;99090.75;5028216;28;20037;-48
2021/10/17 00:49:59;;;;;;;9.18;4.97;;;;;;;5.95;90.83;99102.03;5039206;28;20426;-45
2021/10/17 00:52:25;;;;;;;10.05;4.88;;;;;;;5.93;91.46;99105.53;5036501;28;20037;-46
2021/10/17 00:54:51;;;;;;;10.95;5.82;;;;;;;5.80;91.97;99083.50;5045941;28;20397;-48
2021/10/17 00:57:16;;;;;;;12.57;5.60;;;;;;;5.86;92.43;99107.38;5029825;28;20072;-48
2021/10/17 00:59:45;;;;;;;12.95;5.85;;;;;;;5.86;92.55;99099.63;5031313;28;20519;-46
2021/10/17 01:02:12;;;;;;;8.50;4.97;;;;;;;5.84;92.57;99104.00;5030229;28;20057;-47
2021/10/17 01:04:38;;;;;;;6.45;3.97;;;;;;;5.83;92.85;99107.47;5029148;28;20149;-44
2021/10/17 01:07:06;;;;;;;9.05;5.07;;;;;;;5.82;93.10;99107.50;4995495;28;20574;-48
2021/10/17 01:09:33;;;;;;;10.13;5.00;;;;;;;5.80;93.25;99104.13;5027931;28;20468;-46
2021/10/17 01:12:00;;;;;;;11.23;4.55;;;;;;;5.79;93.18;99100.69;5044024;28;20040;-46
2021/10/17 01:14:27;;;;;;;10.45;6.88;;;;;;;5.78;93.44;99095.56;5029106;28;20048;-46
2021/10/17 01:16:53;;;;;;;9.35;5.15;;;;;;;5.71;93.52;99097.44;5031464;28;20041;-45
2021/10/17 01:19:20;;;;;;;9.13;4.20;;;;;;;5.64;94.03;99087.31;5048286;28;20037;-44
2021/10/17 01:21:50;;;;;;;8.80;4.60;;;;;;;5.73;94.37;99100.84;5060039;28;20056;-45
2021/10/17 01:24:17;;;;;;;10.02;4.82;;;;;;;5.73;93.78;99111.16;5039310;28;20037;-45
2021/10/17 01:26:44;;;;;;;7.63;4.68;;;;;;;5.73;93.99;99099.97;5031369;28;20124;-46
2021/10/17 01:29:10;;;;;;;11.15;5.32;;;;;;;5.69;93.95;99088.91;5029858;28;20072;-47
2021/10/17 01:31:39;;;;;;;10.82;5.25;;;;;;;5.65;94.63;99081.28;5042497;28;20043;-46
2021/10/17 01:34:07;;;;;;;12.73;5.82;;;;;;;5.68;94.35;99084.63;5032360;28;20140;-45
2021/10/17 01:36:34;;;;;;;10.48;5.43;;;;;;;5.59;94.79;99071.13;5031295;28;20044;-45
2021/10/17 01:39:00;;;;;;;9.48;4.30;;;;;;;5.66;94.68;99086.38;5014821;28;20072;-47
2021/10/17 01:41:26;;;;;;;8.85;4.85;;;;;;;5.67;94.87;99100.97;5021721;28;20165;-45
2021/10/17 01:44:07;;;;;;;8.88;3.83;;;;;;;5.67;94.54;99094.97;5027755;28;20084;-49
2021/10/17 01:46:35;;;;;;;11.45;4.47;;;;;;;5.67;94.29;99092.41;5025747;28;20453;-45
2021/10/17 01:49:06;;;;;;;6.88;4.05;;;;;;;5.67;94.54;99087.22;5046550;28;20099;-43
2021/10/17 01:51:38;;;;;;;5.95;3.10;;;;;;;5.57;93.93;99070.28;5054947;28;20164;-46
2021/10/17 01:54:05;;;;;;;10.70;4.88;;;;;;;5.64;94.36;99095.91;5028854;28;20580;-45
2021/10/17 01:56:32;;;;;;;10.23;5.45;;;;;;;5.64;94.98;99093.31;5036380;28;20048;-45
2021/10/17 01:58:57;;;;;;;6.93;3.22;;;;;;;5.62;94.96;99087.34;5032852;28;20037;-46
2021/10/17 02:01:24;;;;;;;6.82;3.72;;;;;;;5.63;94.90;99088.19;5046553;28;20048;-46
2021/10/17 02:03:51;;;;;;;8.98;4.78;;;;;;;5.61;95.13;99100.25;5049330;28;20496;-47
2021/10/17 02:06:17;;;;;;;11.00;5.90;;;;;;;5.61;94.88;99090.81;5032127;28;20112;-44
2021/10/17 02:08:44;;;;;;;7.30;4.20;;;;;;;5.60;94.94;99081.38;5030520;28;20098;-45
2021/10/17 02:11:09;;;;;;;8.30;4.05;;;;;;;5.59;95.21;99084.00;5014543;28;20351;-45
2021/10/17 02:13:36;;;;;;;8.45;4.53;;;;;;;5.58;95.10;99083.16;5048182;28;20045;-47
2021/10/17 02:16:02;;;;;;;10.13;4.70;;;;;;;5.59;95.36;99079.69;5033973;28;20421;-46
2021/10/17 02:18:28;;;;;;;7.50;4.38;;;;;;;5.57;94.70;99076.31;5030453;28;20045;-48
2021/10/17 02:20:54;;;;;;;10.32;5.00;;;;;;;5.58;94.85;99083.16;5045882;28;20056;-45
2021/10/17 02:23:21;;;;;;;9.10;5.07;;;;;;;5.57;95.00;99078.88;5013576;28;20429;-46
2021/10/17 02:25:51;;;;;;;6.88;4.03;;;;;;;5.56;94.64;99084.91;5036451;28;20048;-46
2021/10/17 02:28:21;;;;;;;8.48;4.65;;;;;;;5.58;94.99;99082.31;5049219;28;20049;-47
2021/10/17 02:30:51;;;;;;;10.85;5.30;;;;;;;5.56;94.69;99072.03;5046502;28;20040;-45
2021/10/17 02:33:29;;;;;;;9.60;5.07;;;;;;;5.54;94.18;99064.34;5024532;28;20057;-45
2021/10/17 02:35:55;;;;;;;14.18;5.32;;;;;;;5.46;94.80;99058.50;5049343;28;20113;-49
2021/10/17 02:38:21;;;;;;;10.20;4.95;;;;;;;5.54;94.53;99058.34;5034947;28;20041;-50
2021/10/17 02:40:48;;;;;;;7.78;4.22;;;;;;;5.54;94.26;99060.91;5034472;28;20056;-49
2021/10/17 02:43:14;;;;;;;7.50;4.53;;;;;;;5.53;94.03;99056.63;5044126;28;20453;-47
2021/10/17 02:45:40;;;;;;;8.25;4.22;;;;;;;5.51;94.73;99060.97;5028659;28;20099;-46
2021/10/17 02:48:06;;;;;;;9.73;4.47;;;;;;;5.52;93.93;99045.47;5014339;28;20132;-44
2021/10/17 02:50:32;;;;;;;7.28;3.92;;;;;;;5.52;94.12;99058.38;5029487;28;20410;-46
2021/10/17 02:52:59;;;;;;;9.20;5.35;;;;;;;5.46;94.23;99037.88;5033427;28;20045;-45
2021/10/17 02:55:27;;;;;;;8.13;4.93;;;;;;;5.54;94.14;99046.28;5040214;28;20116;-49
2021/10/17 02:57:53;;;;;;;10.82;5.18;;;;;;;5.54;94.19;99066.91;5037006;28;20037;-48
2021/10/17 03:00:20;;;;;;;9.90;5.63;;;;;;;5.53;93.56;99056.63;5041751;28;20041;-45
2021/10/17 03:02:50;;;;;;;10.23;5.70;;;;;;;5.52;93.82;99060.09;5021219;28;20049;-47
2021/10/17 03:05:16;;;;;;;11.40;6.50;;;;;;;5.50;94.28;99048.97;5037348;28;20037;-48
2021/10/17 03:07:42;;;;;;;12.13;5.75;;;;;;;5.47;94.63;99060.22;5049618;28;20048;-46
2021/10/17 03:10:09;;;;;;;10.73;5.10;;;;;;;5.46;94.05;99053.34;5049607;28;20099;-47
2021/10/17 03:12:35;;;;;;;10.32;5.40;;;;;;;5.46;94.55;99052.50;5038894;28;20049;-45
2021/10/17 03:15:04;;;;;;;9.85;4.68;;;;;;;5.45;94.72;99056.81;5039640;28;20049;-51
2021/10/17 03:17:31;;;;;;;7.40;4.57;;;;;;;5.44;94.70;99060.25;5012772;28;20037;-47
2021/10/17 03:19:57;;;;;;;6.82;3.72;;;;;;;5.42;94.58;99050.88;5029421;28;20299;-48
2021/10/17 03:22:31;;;;;;;10.02;5.22;;;;;;;5.41;94.72;99052.63;5012894;28;20813;-45
2021/10/17 03:24:57;;;;;;;8.30;3.45;;;;;;;5.39;95.00;99045.81;5029104;28;20060;-45
2021/10/17 03:27:27;;;;;;;6.75;3.75;;;;;;;5.39;94.49;99056.94;5014459;28;20083;-50
2021/10/17 03:29:54;;;;;;;7.65;3.90;;;;;;;5.37;94.60;99053.56;4996491;28;20084;-47
2021/10/17 03:32:20;;;;;;;13.40;5.05;;;;;;;5.34;94.74;99048.47;5030064;28;20079;-47
2021/10/17 03:34:47;;;;;;;10.68;5.35;;;;;;;5.35;95.18;99051.91;5040050;28;20056;-47
2021/10/17 03:37:13;;;;;;;7.90;4.88;;;;;;;5.34;94.95;99052.81;5027803;28;20040;-47
2021/10/17 03:39:40;;;;;;;7.90;4.40;;;;;;;5.32;94.81;99044.25;5047354;28;20079;-45
2021/10/17 03:42:05;;;;;;;11.10;4.97;;;;;;;5.31;95.18;99046.00;5032468;28;20211;-50
2021/10/17 03:44:31;;;;;;;9.77;5.20;;;;;;;5.31;95.11;99045.13;5029868;28;20535;-45
2021/10/17 03:46:58;;;;;;;13.23;4.60;;;;;;;5.30;95.27;99046.88;5035776;28;20056;-44
2021/10/17 03:49:27;;;;;;;9.03;4.57;;;;;;;5.29;95.08;99039.16;5029566;28;20033;-49
2021/10/17 03:51:53;;;;;;;13.75;5.05;;;;;;;5.27;95.47;99052.09;5012132;28;20079;-46
2021/10/17 03:54:19;;;;;;;7.95;4.30;;;;;;;5.28;95.45;99045.22;5027418;28;20052;-46
2021/10/17 03:56:45;;;;;;;8.52;4.53;;;;;;;5.16;95.56;99025.72;5027510;28;20078;-46
2021/10/17 03:59:15;;;;;;;9.85;4.63;;;;;;;5.26;95.42;99036.66;5044249;28;20509;-46
2021/10/17 04:01:42;;;;;;;8.95;4.78;;;;;;;5.27;95.86;99041.78;5030295;28;20527;-45
2021/10/17 04:04:08;;;;;;;9.10;4.85;;;;;;;5.27;95.76;99041.78;5040787;28;20038;-48
2021/10/17 04:06:37;;;;;;;8.65;4.70;;;;;;;5.26;95.62;99042.66;5044820;28;20045;-45
2021/10/17 04:09:08;;;;;;;10.55;4.55;;;;;;;5.26;95.28;99034.94;5022241;28;20693;-45
2021/10/17 04:11:35;;;;;;;11.02;4.78;;;;;;;5.26;95.91;99028.94;5026863;28;20056;-44
2021/10/17 04:14:00;;;;;;;6.30;3.60;;;;;;;5.19;95.45;99017.91;5027505;28;20521;-44
2021/10/17 04:16:27;;;;;;;13.23;5.35;;;;;;;5.27;95.13;99036.63;5044489;28;20076;-45
2021/10/17 04:18:53;;;;;;;11.23;4.50;;;;;;;5.29;95.38;99034.00;5027068;28;20046;-45
2021/10/17 04:21:19;;;;;;;10.50;4.38;;;;;;;5.30;95.09;99035.69;5039945;28;20088;-46
2021/10/17 04:23:45;;;;;;;10.15;5.45;;;;;;;5.32;94.99;99032.22;5023309;28;20152;-44
2021/10/17 04:26:11;;;;;;;11.77;5.85;;;;;;;5.34;94.76;99029.63;5036489;28;20057;-44
2021/10/17 04:28:43;;;;;;;9.98;5.60;;;;;;;5.34;94.94;99038.16;5056583;28;20048;-44
2021/10/17 04:31:09;;;;;;;13.85;6.53;;;;;;;5.35;94.82;99037.28;5026666;28;20429;-45
2021/10/17 04:33:34;;;;;;;11.57;5.45;;;;;;;5.29;94.60;99034.00;5026968;28;20094;-44
2021/10/17 04:36:01;;;;;;;12.23;6.05;;;;;;;5.37;94.81;99040.69;5018390;28;20485;-48
2021/10/17 04:38:27;;;;;;;11.75;5.70;;;;;;;5.37;94.27;99039.84;5042987;28;20058;-50
2021/10/17 04:40:53;;;;;;;11.45;5.93;;;;;;;5.41;94.65;99049.19;5044781;28;20044;-50
2021/10/17 04:43:18;;;;;;;11.07;5.80;;;;;;;5.40;94.84;99040.59;5054238;28;20044;-46
2021/10/17 04:45:46;;;;;;;13.38;5.28;;;;;;;5.43;94.62;99031.97;5027176;28;20041;-46
2021/10/17 04:48:12;;;;;;;8.40;5.20;;;;;;;5.44;94.43;99041.41;5001319;28;20048;-46
2021/10/17 04:50:38;;;;;;;8.88;4.55;;;;;;;5.36;93.49;99033.84;5048651;28;20058;-47
2021/10/17 04:53:04;;;;;;;12.98;6.10;;;;;;;5.54;92.94;99048.03;5017571;28;20562;-47
2021/10/17 04:55:31;;;;;;;11.02;5.55;;;;;;;5.59;92.67;99042.75;5029121;28;20505;-45
2021/10/17 04:57:57;;;;;;;10.52;4.95;;;;;;;5.66;92.27;99045.13;5043342;28;20534;-46
2021/10/17 05:00:25;;;;;;;12.63;5.88;;;;;;;5.72;91.56;99052.72;5032764;28;20072;-48
2021/10/17 05:02:55;;;;;;;14.35;5.70;;;;;;;5.74;90.89;99055.25;5026856;28;20513;-47
2021/10/17 05:05:21;;;;;;;12.23;5.60;;;;;;;5.81;90.73;99047.31;5032076;28;20045;-47
2021/10/17 05:07:47;;;;;;;6.85;4.13;;;;;;;5.87;89.77;99047.19;5022551;28;20049;-49
2021/10/17 05:10:13;;;;;;;13.65;5.22;;;;;;;5.82;89.00;99041.28;5050025;28;20456;-49
2021/10/17 05:12:39;;;;;;;11.63;6.13;;;;;;;6.00;89.34;99055.47;5001235;28;20037;-45
2021/10/17 05:15:06;;;;;;;10.20;5.28;;;;;;;6.22;87.49;99056.63;5031124;28;20046;-48
2021/10/17 05:17:32;;;;;;;10.90;4.65;;;;;;;6.47;85.22;99071.44;5033427;28;20528;-45
2021/10/17 05:19:58;;;;;;;12.77;5.50;;;;;;;6.87;81.75;99065.97;5031560;28;20131;-47
2021/10/17 05:22:25;;;;;;;11.95;4.43;;;;;;;7.08;79.56;99065.34;5028018;28;20034;-51
2021/10/17 05:24:51;;;;;;;11.65;5.43;;;;;;;7.27;78.51;99069.06;5029522;28;20414;-50
2021/10/17 05:27:17;;;;;;;10.57;5.40;;;;;;;7.13;77.67;99040.19;4998746;28;20104;-49
2021/10/17 05:29:43;;;;;;;10.70;5.45;;;;;;;7.47;76.40;99068.44;5014044;28;20041;-49
2021/10/17 05:32:09;;;;;;;8.82;4.80;;;;;;;7.72;74.63;99061.59;5030874;28;20103;-49
2021/10/17 05:34:37;;;;;;;7.97;4.68;;;;;;;8.00;73.27;99048.56;5016383;28;20160;-48
2021/10/17 05:37:02;;;;;;;8.95;4.82;;;;;;;8.01;72.61;99064.03;5061476;28;20132;-47
2021/10/17 05:39:28;;;;;;;10.77;5.80;;;;;;;7.95;72.75;99055.66;5047819;28;20052;-50
2021/10/17 05:41:55;;;;;;;7.22;4.38;;;;;;;7.90;72.41;99052.38;5051958;28;20047;-52
2021/10/17 05:44:21;;;;;;;7.72;4.60;;;;;;;7.72;73.40;99061.59;5018616;28;20041;-46
2021/10/17 05:46:47;;;;;;;11.90;6.15;;;;;;;7.55;74.30;99058.69;5033361;28;20100;-49
2021/10/17 05:49:14;;;;;;;9.05;5.93;;;;;;;7.32;74.73;99045.66;5032415;28;20045;-49
2021/10/17 05:51:40;;;;;;;9.98;5.30;;;;;;;7.40;75.11;99064.34;5030991;28;20061;-49
2021/10/17 05:54:07;;;;;;;9.68;4.10;;;;;;;7.46;74.65;99074.50;5002836;28;20053;-48
2021/10/17 05:56:33;;;;;;;10.45;4.65;;;;;;;7.51;74.76;99070.88;5030096;28;20045;-46
2021/10/17 05:58:59;;;;;;;11.55;5.20;;;;;;;7.56;74.53;99057.78;5044680;28;20045;-45
2021/10/17 06:01:25;;;;;;;11.77;5.07;;;;;;;7.51;74.46;99068.28;5014741;28;20464;-48
2021/10/17 06:04:23;;;;;;;7.88;4.78;;;;;;;7.36;74.74;99048.09;5026757;28;20068;-47
2021/10/17 06:06:55;;;;;;;10.55;5.55;;;;;;;7.21;76.04;99062.34;5036361;28;20044;-44
2021/10/17 06:09:21;;;;;;;9.13;5.10;;;;;;;7.17;76.42;99068.47;5004415;28;20114;-46
2021/10/17 06:11:48;;;;;;;12.55;5.45;;;;;;;7.08;76.75;99055.00;5016667;28;20092;-46
2021/10/17 06:14:14;;;;;;;7.13;4.45;;;;;;;7.11;76.83;99068.69;5021619;28;20067;-47
2021/10/17 06:16:40;;;;;;;10.35;5.10;;;;;;;6.97;77.76;99085.47;5029615;28;20037;-48
2021/10/17 06:19:06;;;;;;;8.75;4.85;;;;;;;6.81;78.64;99069.56;5029290;28;20059;-46
2021/10/17 06:21:39;;;;;;;10.32;5.22;;;;;;;6.83;79.10;99067.81;5029268;28;20136;-48
2021/10/17 06:24:08;;;;;;;8.40;4.70;;;;;;;6.89;78.83;99064.19;4998673;28;20052;-48
2021/10/17 06:26:34;;;;;;;10.05;5.40;;;;;;;7.03;78.43;99070.66;5065008;28;20044;-45
2021/10/17 06:29:00;;;;;;;7.60;4.53;;;;;;;7.04;78.41;99061.16;5051585;28;20049;-49
2021/10/17 06:31:26;;;;;;;11.20;4.95;;;;;;;7.07;78.32;99059.31;5038044;28;20489;-49
2021/10/17 06:33:56;;;;;;;8.55;3.60;;;;;;;7.07;77.74;99061.03;5031090;28;20099;-45
2021/10/17 06:36:22;;;;;;;9.02;4.80;;;;;;;7.01;78.45;99075.03;5035795;28;20041;-45
2021/10/17 06:38:48;;;;;;;10.07;5.00;;;;;;;7.06;78.61;99067.13;5048405;28;20530;-47
2021/10/17 06:41:13;;;;;;;9.85;5.47;;;;;;;7.35;77.53;99069.66;5037546;28;20105;-48
2021/10/17 06:43:40;;;;;;;9.45;4.97;;;;;;;8.06;74.09;99074.22;5010223;28;20056;-48
2021/10/17 06:46:11;;;;;;;9.40;4.85;;;;;;;7.91;73.89;99072.16;5032146;28;20049;-45
2021/10/17 06:48:39;;;;;;;10.40;4.32;;;;;;;7.62;74.57;99055.00;5029575;28;20087;-51
2021/10/17 06:51:04;;;;;;;8.32;4.25;;;;;;;7.74;74.67;99090.00;5028164;28;20057;-50
2021/10/17 06:53:30;;;;;;;8.65;3.92;;;;;;;7.80;73.56;99046.63;5030280;28;20049;-49
2021/10/17 06:55:56;;;;;;;5.43;3.35;;;;;;;7.82;73.91;99069.88;5013569;28;20048;-51
2021/10/17 06:58:24;;;;;;;12.95;5.25;;;;;;;7.87;73.82;99058.47;5053931;28;20051;-47
2021/10/17 07:00:50;;;;;;;8.18;4.63;;;;;;;8.20;72.67;99066.00;5031223;28;20049;-47
2021/10/17 07:03:17;;;;;;;10.20;5.15;;;;;;;8.04;72.79;99063.09;5046937;28;20517;-48
2021/10/17 07:06:13;;;;;;;8.55;4.32;;;;;;;8.05;72.51;99083.75;5048825;28;20524;-51
2021/10/17 07:08:43;;;;;;;8.80;5.25;;;;;;;7.93;73.70;99067.78;5032920;28;20045;-48
2021/10/17 07:11:16;;;;;;;10.82;5.25;;;;;;;7.84;73.60;99065.50;5013373;28;20108;-46
2021/10/17 07:14:12;;;;;;;10.23;5.45;;;;;;;7.95;73.68;99086.72;5033398;28;20521;-46
2021/10/17 07:16:51;;;;;;;9.10;5.20;;;;;;;7.66;74.42;99074.72;5000274;28;20061;-49
2021/10/17 07:19:17;;;;;;;11.10;5.55;;;;;;;7.66;74.93;99085.06;5021149;28;20491;-50
2021/10/17 07:21:43;;;;;;;7.93;4.45;;;;;;;7.53;75.57;99091.53;5009484;28;20107;-46
2021/10/17 07:24:09;;;;;;;10.10;3.72;;;;;;;7.53;75.65;99094.97;5026122;28;20073;-45
2021/10/17 07:26:34;;;;;;;8.95;4.63;;;;;;;7.55;75.29;99111.25;5028975;28;20088;-51
2021/10/17 07:29:00;;;;;;;11.65;5.30;;;;;;;7.68;74.72;99106.56;5012256;28;20404;-47
2021/10/17 07:31:26;;;;;;;7.55;3.95;;;;;;;7.61;74.97;99102.47;5045312;28;20041;-50
2021/10/17 07:33:58;;;;;;;13.00;5.38;;;;;;;7.55;75.45;99087.97;5029526;28;20426;-47
2021/10/17 07:36:25;;;;;;;8.70;4.68;;;;;;;7.58;75.51;99092.22;5032308;28;20033;-51
2021/10/17 07:38:57;;;;;;;10.15;4.40;;;;;;;7.65;74.75;99099.72;5043600;28;20038;-48
2021/10/17 07:41:25;;;;;;;9.07;4.30;;;;;;;7.56;75.05;99099.19;5029340;28;20525;-47
2021/10/17 07:43:58;;;;;;;10.23;4.65;;;;;;;7.64;74.95;99098.03;5035430;28;20434;-46
2021/10/17 07:46:24;;;;;;;8.20;3.75;;;;;;;7.55;75.37;99115.59;5039445;28;20041;-50
2021/10/17 07:48:49;;;;;;;10.50;5.13;;;;;;;7.38;75.62;99098.00;5048828;28;20044;-48
2021/10/17 07:51:15;;;;;;;9.23;4.55;;;;;;;7.38;76.16;99102.34;5036027;28;20061;-48
2021/10/17 07:53:41;;;;;;;10.50;5.05;;;;;;;7.47;76.10;99105.50;5029153;28;20045;-51
2021/10/17 07:56:11;;;;;;;;;;;;;;;7.56;75.53;99112.97;5029383;28;20040;-48
2021/10/17 07:58:36;;;;;;;10.40;5.07;;;;;;;7.56;75.47;99123.31;5027733;28;19921;-48
2021/10/17 08:01:02;;;;;;;7.80;4.60;;;;;;;7.55;75.54;99119.03;5027579;28;20041;-51
2021/10/17 08:03:34;;;;;;;13.50;5.68;;;;;;;7.65;75.17;99109.22;5028803;28;20044;-48
2021/10/17 08:06:20;;;;;;;17.40;5.60;;;;;;;7.62;75.37;99122.28;5027321;28;20077;-47
2021/10/17 08:08:47;;;;;;;16.33;5.38;;;;;;;7.65;74.68;99133.34;5028443;28;20068;-49
2021/10/17 08:11:16;;;;;;;10.25;5.15;;;;;;;7.69;74.53;99123.78;5009455;28;20468;-48
2021/10/17 08:13:42;;;;;;;11.20;5.55;;;;;;;7.73;74.40;99121.94;5026714;28;20044;-51
2021/10/17 08:16:10;;;;;;;9.32;5.03;;;;;;;7.86;74.03;99121.47;5026414;28;20091;-52
2021/10/17 08:18:45;;;;;;;11.80;5.00;;;;;;;7.93;73.12;99132.50;5028231;28;20045;-51
2021/10/17 08:21:11;;;;;;;7.93;4.10;;;;;;;7.95;72.82;99147.09;5013464;28;20033;-51
2021/10/17 08:23:44;;;;;;;8.40;4.00;;;;;;;8.01;73.04;99159.81;5025111;28;20429;-47
2021/10/17 08:26:10;;;;;;;10.52;4.82;;;;;;;7.87;73.15;99156.81;5027799;28;20065;-49
2021/10/17 08:28:38;;;;;;;10.73;4.55;;;;;;;7.79;73.67;99155.38;5011573;28;20041;-47
2021/10/17 08:31:13;;;;;;;10.00;4.30;;;;;;;7.72;73.83;99153.88;5024379;28;20091;-48
2021/10/17 08:33:44;;;;;;;9.75;3.90;;;;;;;7.61;74.36;99147.28;5031972;28;20060;-48
2021/10/17 08:36:11;;;;;;;7.10;4.22;;;;;;;7.58;74.70;99156.91;5031645;28;20509;-47
2021/10/17 08:38:37;;;;;;;10.90;3.75;;;;;;;7.62;74.67;99155.91;5030799;28;20042;-46
2021/10/17 08:41:06;;;;;;;;;;;;;;;7.71;74.33;99149.59;5034329;28;20041;-50
2021/10/17 08:43:53;;;;;;;4.80;2.55;;;;;;;7.60;74.74;99155.94;5021201;28;20434;-49
2021/10/17 08:46:23;;;;;;;8.98;3.58;;;;;;;7.47;75.23;99154.63;5026207;28;20052;-51
2021/10/17 08:48:57;;;;;;;7.25;3.40;;;;;;;7.34;75.73;99144.69;5017132;28;20049;-52
2021/10/17 08:51:26;;;;;;;4.15;2.60;;;;;;;7.46;75.75;99144.34;5035191;28;20057;-50
2021/10/17 08:54:05;;;;;;;8.77;4.80;;;;;;;7.54;75.23;99150.09;5021217;28;20045;-48
2021/10/17 08:56:33;;;;;;;12.38;5.00;;;;;;;7.51;75.21;99132.94;5030306;28;20494;-50
2021/10/17 08:59:00;;;;;;;10.45;4.63;;;;;;;7.61;75.45;99157.63;5029842;28;20042;-53
2021/10/17 09:01:42;;;;;;;8.32;3.63;;;;;;;7.55;75.01;99152.66;5011261;28;20129;-48
2021/10/17 09:04:13;;;;;;;10.85;4.63;;;;;;;7.52;75.68;99145.00;4999837;28;20073;-51
2021/10/17 09:06:50;;;;;;;7.50;3.90;;;;;;;7.58;75.35;99139.63;5014713;28;20038;-50
2021/10/17 09:09:18;;;;;;;10.77;4.30;;;;;;;7.58;75.49;99137.06;5024329;28;20434;-48
2021/10/17 09:11:53;;;;;;;6.70;3.90;;;;;;;7.60;74.96;99136.97;5043500;28;20052;-47
2021/10/17 09:14:24;;;;;;;8.52;3.97;;;;;;;7.60;75.35;99143.00;5015317;28;20473;-50
2021/10/17 09:16:52;;;;;;;13.20;4.80;;;;;;;7.60;75.64;99143.00;5005388;28;20072;-50
2021/10/17 09:19:31;;;;;;;7.30;3.30;;;;;;;7.69;75.33;99156.56;5005144;28;20939;-47
2021/10/17 09:21:58;;;;;;;5.35;3.08;;;;;;;7.65;75.23;99161.81;5025738;28;20064;-51
2021/10/17 09:24:41;;;;;;;8.43;3.28;;;;;;;7.54;75.92;99155.28;5035709;28;20096;-47
2021/10/17 09:27:15;;;;;;;10.15;4.00;;;;;;;7.40;75.85;99121.22;5014882;28;20041;-48
2021/10/17 09:29:55;;;;;;;10.93;3.70;;;;;;;7.61;75.91;99141.28;5026526;28;20081;-49
2021/10/17 09:32:27;;;;;;;9.15;4.00;;;;;;;7.81;75.20;99133.72;5019898;28;20359;-51
2021/10/17 09:34:54;;;;;;;8.10;3.38;;;;;;;7.79;74.71;99143.28;5014820;28;20068;-51
2021/10/17 09:37:34;;;;;;;9.38;3.83;;;;;;;7.75;75.13;99143.41;5031077;28;20479;-50
2021/10/17 09:40:20;;;;;;;10.18;3.60;;;;;;;7.86;74.59;99133.56;5031198;28;20045;-51
2021/10/17 09:43:05;;;;;;;7.35;3.20;;;;;;;7.74;74.95;99132.25;5019500;28;20041;-50
2021/10/17 09:45:37;;;;;;;7.10;3.63;;;;;;;7.78;74.61;99133.84;5041512;28;20045;-51
2021/10/17 09:48:04;;;;;;;10.02;4.32;;;;;;;7.85;74.68;99124.13;5029747;28;20402;-54
2021/10/17 09:50:30;;;;;;;10.20;4.53;;;;;;;7.86;74.13;99128.41;5038031;28;20060;-48
2021/10/17 09:53:07;;;;;;;8.82;4.32;;;;;;;7.85;74.38;99131.91;5050810;28;20055;-52
2021/10/17 09:55:34;;;;;;;8.85;3.75;;;;;;;7.86;74.44;99130.97;5049547;28;20531;-49
2021/10/17 09:58:03;;;;;;;7.97;4.80;;;;;;;7.83;74.47;99126.78;5030224;28;20528;-49
2021/10/17 10:00:36;;;;;;;8.65;4.00;;;;;;;7.99;73.64;99137.47;5033114;28;20041;-47
2021/10/17 10:03:04;;;;;;;8.43;4.22;;;;;;;7.98;72.82;99125.41;5032279;28;20063;-50
2021/10/17 10:05:30;;;;;;;8.75;3.38;;;;;;;8.00;73.42;99126.22;5014176;28;20053;-50
2021/10/17 10:08:01;;;;;;;9.93;4.70;;;;;;;8.09;73.42;99139.72;5032199;28;20056;-51
2021/10/17 10:10:32;;;;;;;11.98;4.88;;;;;;;8.26;73.02;99120.19;5030691;28;20041;-50
2021/10/17 10:13:01;;;;;;;10.27;4.32;;;;;;;8.40;72.54;99120.56;5037595;28;20040;-48
2021/10/17 10:15:27;;;;;;;8.30;5.53;;;;;;;8.40;70.89;99092.09;5041268;28;20094;-47
2021/10/17 10:17:54;;;;;;;6.47;3.47;;;;;;;8.38;71.41;99124.94;5031610;28;20048;-49
2021/10/17 10:20:23;;;;;;;8.05;3.95;;;;;;;8.37;70.86;99124.09;5031108;28;20049;-52
2021/10/17 10:22:50;;;;;;;7.47;3.65;;;;;;;8.37;70.42;99108.56;5031706;28;20042;-49
2021/10/17 10:25:16;;;;;;;9.82;4.00;;;;;;;8.73;69.63;99126.31;5028400;28;20063;-47
2021/10/17 10:27:46;;;;;;;6.80;3.55;;;;;;;9.04;68.48;99128.66;5030526;28;20523;-52
2021/10/17 10:30:29;;;;;;;7.50;3.70;;;;;;;9.10;67.97;99118.06;5032886;28;20044;-54
2021/10/17 10:33:13;;;;;;;6.50;3.53;;;;;;;9.30;67.35;99142.34;5031982;28;20424;-48
2021/10/17 10:36:03;;;;;;;4.10;2.53;;;;;;;9.03;67.31;99121.75;5044516;28;20041;-52
2021/10/17 10:39:12;;;;;;;6.35;2.85;;;;;;;8.98;67.81;99121.09;5049519;28;20075;-49
2021/10/17 10:42:13;;;;;;;7.07;3.08;;;;;;;9.01;68.19;99133.94;5040060;28;20049;-48
2021/10/17 10:44:42;;;;;;;8.93;3.42;;;;;;;8.85;68.20;99112.91;5028396;28;20532;-49
2021/10/17 10:47:28;;;;;;;9.02;2.75;;;;;;;8.90;68.04;99108.41;5030860;28;20029;-50
2021/10/17 10:49:55;;;;;;;7.97;3.25;;;;;;;9.09;67.60;99117.19;5029279;28;20091;-52
2021/10/17 10:52:23;;;;;;;10.27;3.92;;;;;;;9.11;67.58;99107.59;5030992;28;20211;-49
2021/10/17 10:54:54;;;;;;;9.80;3.30;;;;;;;8.92;68.13;99107.44;5026973;28;20069;-49
2021/10/17 10:57:21;;;;;;;12.65;3.28;;;;;;;8.83;68.10;99091.41;5012640;28;20060;-48
2021/10/17 10:59:58;;;;;;;9.93;4.22;;;;;;;9.18;67.53;99103.88;5031475;28;20039;-49
2021/10/17 11:02:24;;;;;;;5.97;2.75;;;;;;;9.31;66.75;99088.72;5030189;28;21394;-46
2021/10/17 11:04:50;;;;;;;10.57;3.20;;;;;;;9.39;66.73;99103.97;5027925;28;20033;-47
2021/10/17 11:07:32;;;;;;;6.78;2.75;;;;;;;9.29;66.65;99101.72;5030418;28;20040;-47
2021/10/17 11:10:23;;;;;;;8.85;3.10;;;;;;;9.30;66.56;99106.03;5027569;28;20045;-48
2021/10/17 11:13:02;;;;;;;7.78;3.72;;;;;;;9.37;66.69;99085.03;5028498;28;20041;-45
2021/10/17 11:15:39;;;;;;;7.57;3.78;;;;;;;9.25;66.56;99094.13;5027888;28;20045;-47
2021/10/17 11:18:12;;;;;;;8.30;3.60;;;;;;;9.12;67.16;99101.50;5032200;28;20056;-48
2021/10/17 11:20:47;;;;;;;4.97;2.33;;;;;;;9.03;67.18;99091.50;5030607;28;20099;-50
2021/10/17 11:23:21;;;;;;;6.25;3.63;;;;;;;9.03;67.37;99088.06;5028090;28;20052;-49
2021/10/17 11:25:58;;;;;;;9.45;3.35;;;;;;;9.15;67.37;99085.88;5027964;28;20037;-48
2021/10/17 11:28:25;;;;;;;5.90;3.25;;;;;;;9.17;67.12;99097.00;5043949;28;20041;-46
2021/10/17 11:31:13;;;;;;;6.13;3.10;;;;;;;9.14;67.15;99088.50;5031339;28;20033;-51
2021/10/17 11:33:42;;;;;;;15.57;3.47;;;;;;;9.10;67.25;99086.94;5029171;28;20045;-47
2021/10/17 11:36:10;;;;;;;5.25;2.92;;;;;;;9.15;66.97;99082.41;5028763;28;20615;-51
2021/10/17 11:38:36;;;;;;;10.15;3.78;;;;;;;9.22;66.85;99076.91;5015584;28;20045;-50
2021/10/17 11:41:22;;;;;;;8.30;3.38;;;;;;;9.35;66.09;99096.31;5029683;28;20505;-48
2021/10/17 11:43:50;;;;;;;6.22;3.35;;;;;;;9.38;66.38;99077.16;5039578;28;20111;-50
2021/10/17 11:46:22;;;;;;;8.32;3.50;;;;;;;9.26;66.55;99070.69;5028461;28;20139;-51
2021/10/17 11:48:56;;;;;;;9.25;3.25;;;;;;;9.56;65.89;99083.41;5028820;28;20066;-47